sensor_id;sensor_type;location;lat;lon;timestamp;pressure;altitude;pressure_sealevel;temperature;humidity
71299;BME280;59083;47.974;21.722;2022-11-23T00:01:44;99273.38;;;2.80;95.95
71299;BME280;59083;47.974;21.722;2022-11-23T00:04:45;99284.56;;;2.90;95.43
71299;BME280;59083;47.974;21.722;2022-11-23T00:07:46;99276.03;;;2.88;95.54
71299;BME280;59083;47.974;21.722;2022-11-23T00:10:48;99277.69;;;2.89;95.09
71299;BME280;59083;47.974;21.722;2022-11-23T00:13:49;99280.00;;;2.84;95.04
71299;BME280;59083;47.974;21.722;2022-11-23T00:16:50;99279.66;;;2.71;95.35
71299;BME280;59083;47.974;21.722;2022-11-23T00:19:51;99270.25;;;2.85;95.18
71299;BME280;59083;47.974;21.722;2022-11-23T00:22:53;99275.72;;;2.83;95.44
71299;BME280;59083;47.974;21.722;2022-11-23T00:25:54;99271.25;;;2.76;95.32
71299;BME280;59083;47.974;21.722;2022-11-23T00:28:55;99268.78;;;2.74;95.23
71299;BME280;59083;47.974;21.722;2022-11-23T00:31:59;99267.81;;;2.75;95.21
71299;BME280;59083;47.974;21.722;2022-11-23T00:35:01;99259.09;;;2.75;95.15
71299;BME280;59083;47.974;21.722;2022-11-23T00:38:04;99260.91;;;2.82;94.65
71299;BME280;59083;47.974;21.722;2022-11-23T00:41:07;99271.09;;;2.85;94.66
71299;BME280;59083;47.974;21.722;2022-11-23T00:44:09;99279.28;;;2.90;93.80
71299;BME280;59083;47.974;21.722;2022-11-23T00:47:10;99263.38;;;2.84;93.82
71299;BME280;59083;47.974;21.722;2022-11-23T00:50:11;99262.22;;;2.86;93.83
71299;BME280;59083;47.974;21.722;2022-11-23T00:53:13;99260.91;;;2.82;94.21
71299;BME280;59083;47.974;21.722;2022-11-23T00:56:14;99263.84;;;2.79;94.21
71299;BME280;59083;47.974;21.722;2022-11-23T00:59:15;99269.78;;;2.81;94.20
71299;BME280;59083;47.974;21.722;2022-11-23T01:02:16;99265.50;;;2.80;93.82
71299;BME280;59083;47.974;21.722;2022-11-23T01:05:18;99257.59;;;2.80;93.71
71299;BME280;59083;47.974;21.722;2022-11-23T01:08:19;99245.75;;;2.92;93.43
71299;BME280;59083;47.974;21.722;2022-11-23T01:11:21;99238.53;;;2.95;93.21
71299;BME280;59083;47.974;21.722;2022-11-23T01:14:23;99239.16;;;2.97;93.40
71299;BME280;59083;47.974;21.722;2022-11-23T01:17:25;99244.78;;;3.02;92.95
71299;BME280;59083;47.974;21.722;2022-11-23T01:20:26;99253.16;;;3.05;92.78
71299;BME280;59083;47.974;21.722;2022-11-23T01:23:28;99243.12;;;3.01;92.24
71299;BME280;59083;47.974;21.722;2022-11-23T01:26:30;99253.31;;;3.04;92.30
71299;BME280;59083;47.974;21.722;2022-11-23T01:29:31;99250.34;;;3.07;92.29
71299;BME280;59083;47.974;21.722;2022-11-23T01:32:34;99248.72;;;2.98;92.97
71299;BME280;59083;47.974;21.722;2022-11-23T01:35:35;99237.88;;;2.92;92.75
71299;BME280;59083;47.974;21.722;2022-11-23T01:38:38;99236.25;;;2.83;93.15
71299;BME280;59083;47.974;21.722;2022-11-23T01:41:41;99235.22;;;3.01;92.86
71299;BME280;59083;47.974;21.722;2022-11-23T01:44:42;99237.88;;;3.01;92.54
71299;BME280;59083;47.974;21.722;2022-11-23T01:47:44;99229.00;;;3.02;92.71
71299;BME280;59083;47.974;21.722;2022-11-23T01:50:48;99233.91;;;2.97;92.66
71299;BME280;59083;47.974;21.722;2022-11-23T01:53:53;99219.81;;;2.89;92.48
71299;BME280;59083;47.974;21.722;2022-11-23T01:57:00;99217.63;;;3.01;92.56
71299;BME280;59083;47.974;21.722;2022-11-23T02:00:03;99213.19;;;3.02;92.16
71299;BME280;59083;47.974;21.722;2022-11-23T02:03:13;99213.06;;;2.87;93.10
71299;BME280;59083;47.974;21.722;2022-11-23T02:06:18;99199.38;;;2.91;93.04
71299;BME280;59083;47.974;21.722;2022-11-23T02:09:21;99200.72;;;2.87;93.21
71299;BME280;59083;47.974;21.722;2022-11-23T02:12:22;99195.44;;;2.96;93.02
71299;BME280;59083;47.974;21.722;2022-11-23T02:15:24;99192.81;;;2.96;92.98
71299;BME280;59083;47.974;21.722;2022-11-23T02:18:28;99176.38;;;2.85;93.41
71299;BME280;59083;47.974;21.722;2022-11-23T02:21:30;99171.16;;;2.77;93.61
71299;BME280;59083;47.974;21.722;2022-11-23T02:24:35;99179.84;;;2.86;93.15
71299;BME280;59083;47.974;21.722;2022-11-23T02:27:43;99166.69;;;2.86;93.46
71299;BME280;59083;47.974;21.722;2022-11-23T02:30:47;99160.28;;;2.88;93.35
71299;BME280;59083;47.974;21.722;2022-11-23T02:33:49;99182.97;;;2.89;93.58
71299;BME280;59083;47.974;21.722;2022-11-23T02:36:52;99183.00;;;2.73;94.47
71299;BME280;59083;47.974;21.722;2022-11-23T02:39:55;99183.47;;;2.77;94.35
71299;BME280;59083;47.974;21.722;2022-11-23T02:42:59;99180.03;;;2.84;93.62
71299;BME280;59083;47.974;21.722;2022-11-23T02:46:02;99198.41;;;2.92;93.52
71299;BME280;59083;47.974;21.722;2022-11-23T02:49:04;99204.50;;;2.93;93.39
71299;BME280;59083;47.974;21.722;2022-11-23T02:52:05;99212.56;;;2.83;93.88
71299;BME280;59083;47.974;21.722;2022-11-23T02:55:07;99214.84;;;2.86;93.75
71299;BME280;59083;47.974;21.722;2022-11-23T02:58:10;99211.41;;;2.94;93.27
71299;BME280;59083;47.974;21.722;2022-11-23T03:01:11;99206.13;;;2.94;93.29
71299;BME280;59083;47.974;21.722;2022-11-23T03:04:13;99203.31;;;3.04;93.00
71299;BME280;59083;47.974;21.722;2022-11-23T03:07:14;99194.16;;;2.83;93.64
71299;BME280;59083;47.974;21.722;2022-11-23T03:10:17;99203.00;;;2.99;93.32
71299;BME280;59083;47.974;21.722;2022-11-23T03:13:18;99208.06;;;3.08;92.60
71299;BME280;59083;47.974;21.722;2022-11-23T03:16:21;99206.91;;;3.11;92.59
71299;BME280;59083;47.974;21.722;2022-11-23T03:19:22;99201.66;;;3.11;92.11
71299;BME280;59083;47.974;21.722;2022-11-23T03:22:24;99189.47;;;3.18;91.84
71299;BME280;59083;47.974;21.722;2022-11-23T03:25:26;99184.87;;;3.12;91.71
71299;BME280;59083;47.974;21.722;2022-11-23T03:28:28;99170.53;;;3.14;91.24
71299;BME280;59083;47.974;21.722;2022-11-23T03:31:30;99173.69;;;3.10;91.41
71299;BME280;59083;47.974;21.722;2022-11-23T03:34:33;99185.19;;;3.17;90.68
71299;BME280;59083;47.974;21.722;2022-11-23T03:37:35;99183.69;;;3.22;90.55
71299;BME280;59083;47.974;21.722;2022-11-23T03:40:37;99181.88;;;3.23;90.65
71299;BME280;59083;47.974;21.722;2022-11-23T03:43:38;99171.66;;;3.28;90.32
71299;BME280;59083;47.974;21.722;2022-11-23T03:46:40;99165.44;;;3.21;90.09
71299;BME280;59083;47.974;21.722;2022-11-23T03:49:41;99162.63;;;3.22;90.09
71299;BME280;59083;47.974;21.722;2022-11-23T03:52:43;99169.69;;;3.30;90.01
71299;BME280;59083;47.974;21.722;2022-11-23T03:55:46;99166.03;;;3.31;89.21
71299;BME280;59083;47.974;21.722;2022-11-23T03:58:48;99168.06;;;3.21;89.52
71299;BME280;59083;47.974;21.722;2022-11-23T04:01:49;99168.34;;;3.26;89.29
71299;BME280;59083;47.974;21.722;2022-11-23T04:04:51;99172.50;;;3.20;89.81
71299;BME280;59083;47.974;21.722;2022-11-23T04:07:55;99170.06;;;3.19;90.28
71299;BME280;59083;47.974;21.722;2022-11-23T04:10:59;99170.22;;;3.17;90.43
71299;BME280;59083;47.974;21.722;2022-11-23T04:14:00;99164.81;;;3.11;90.61
71299;BME280;59083;47.974;21.722;2022-11-23T04:17:02;99165.47;;;3.13;90.26
71299;BME280;59083;47.974;21.722;2022-11-23T04:20:03;99163.31;;;3.16;90.45
71299;BME280;59083;47.974;21.722;2022-11-23T04:23:05;99184.53;;;3.15;90.77
71299;BME280;59083;47.974;21.722;2022-11-23T04:26:07;99197.38;;;3.18;91.49
71299;BME280;59083;47.974;21.722;2022-11-23T04:29:09;99190.78;;;3.14;91.31
71299;BME280;59083;47.974;21.722;2022-11-23T04:32:10;99200.00;;;3.18;91.43
71299;BME280;59083;47.974;21.722;2022-11-23T04:35:12;99183.38;;;3.17;92.10
71299;BME280;59083;47.974;21.722;2022-11-23T04:38:14;99191.44;;;3.24;91.80
71299;BME280;59083;47.974;21.722;2022-11-23T04:41:16;99183.84;;;3.21;92.58
71299;BME280;59083;47.974;21.722;2022-11-23T04:44:18;99188.50;;;3.03;93.56
71299;BME280;59083;47.974;21.722;2022-11-23T04:47:24;99187.88;;;2.92;94.42
71299;BME280;59083;47.974;21.722;2022-11-23T04:50:25;99190.50;;;3.01;95.01
71299;BME280;59083;47.974;21.722;2022-11-23T04:53:27;99183.75;;;3.06;94.32
71299;BME280;59083;47.974;21.722;2022-11-23T04:56:28;99187.19;;;3.07;95.59
71299;BME280;59083;47.974;21.722;2022-11-23T04:59:30;99189.84;;;3.07;94.70
71299;BME280;59083;47.974;21.722;2022-11-23T05:02:33;99184.56;;;2.99;96.16
71299;BME280;59083;47.974;21.722;2022-11-23T05:05:39;99194.13;;;3.00;95.45
71299;BME280;59083;47.974;21.722;2022-11-23T05:08:41;99195.09;;;2.99;95.37
71299;BME280;59083;47.974;21.722;2022-11-23T05:11:44;99202.53;;;2.95;95.21
71299;BME280;59083;47.974;21.722;2022-11-23T05:14:45;99196.75;;;2.91;96.21
71299;BME280;59083;47.974;21.722;2022-11-23T05:17:48;99193.19;;;2.84;97.31
71299;BME280;59083;47.974;21.722;2022-11-23T05:20:49;99202.84;;;2.92;97.89
71299;BME280;59083;47.974;21.722;2022-11-23T05:23:51;99203.34;;;2.96;98.05
71299;BME280;59083;47.974;21.722;2022-11-23T05:26:52;99191.03;;;2.88;97.53
71299;BME280;59083;47.974;21.722;2022-11-23T05:29:54;99189.84;;;2.90;97.70
71299;BME280;59083;47.974;21.722;2022-11-23T05:33:02;99197.41;;;2.85;98.84
71299;BME280;59083;47.974;21.722;2022-11-23T05:36:04;99190.03;;;2.81;98.75
71299;BME280;59083;47.974;21.722;2022-11-23T05:39:07;99187.25;;;2.74;99.34
71299;BME280;59083;47.974;21.722;2022-11-23T05:42:09;99181.69;;;2.77;100.00
71299;BME280;59083;47.974;21.722;2022-11-23T05:45:11;99182.00;;;2.74;100.00
71299;BME280;59083;47.974;21.722;2022-11-23T05:48:13;99188.59;;;2.70;100.00
71299;BME280;59083;47.974;21.722;2022-11-23T05:51:15;99186.63;;;2.72;100.00
71299;BME280;59083;47.974;21.722;2022-11-23T05:54:17;99185.63;;;2.65;100.00
71299;BME280;59083;47.974;21.722;2022-11-23T05:57:18;99199.44;;;2.67;100.00
71299;BME280;59083;47.974;21.722;2022-11-23T06:00:21;99192.84;;;2.71;100.00
71299;BME280;59083;47.974;21.722;2022-11-23T06:03:24;99191.56;;;2.67;100.00
71299;BME280;59083;47.974;21.722;2022-11-23T06:06:25;99194.81;;;2.69;100.00
71299;BME280;59083;47.974;21.722;2022-11-23T06:09:27;99178.25;;;2.61;100.00
71299;BME280;59083;47.974;21.722;2022-11-23T06:12:30;99197.81;;;2.66;100.00
71299;BME280;59083;47.974;21.722;2022-11-23T06:15:32;99188.59;;;2.70;100.00
71299;BME280;59083;47.974;21.722;2022-11-23T06:18:33;99190.56;;;2.76;100.00
71299;BME280;59083;47.974;21.722;2022-11-23T06:21:34;99195.13;;;2.82;100.00
71299;BME280;59083;47.974;21.722;2022-11-23T06:24:36;99196.47;;;2.78;100.00
71299;BME280;59083;47.974;21.722;2022-11-23T06:27:39;99211.59;;;2.76;100.00
71299;BME280;59083;47.974;21.722;2022-11-23T06:30:40;99206.31;;;2.68;100.00
71299;BME280;59083;47.974;21.722;2022-11-23T06:33:42;99206.31;;;2.76;100.00
71299;BME280;59083;47.974;21.722;2022-11-23T06:36:43;99211.94;;;2.73;100.00
71299;BME280;59083;47.974;21.722;2022-11-23T06:39:45;99207.31;;;2.75;100.00
71299;BME280;59083;47.974;21.722;2022-11-23T06:42:46;99205.66;;;2.74;100.00
71299;BME280;59083;47.974;21.722;2022-11-23T06:45:48;99213.91;;;2.71;100.00
71299;BME280;59083;47.974;21.722;2022-11-23T06:48:49;99204.00;;;2.81;100.00
71299;BME280;59083;47.974;21.722;2022-11-23T06:51:51;99207.66;;;2.72;100.00
71299;BME280;59083;47.974;21.722;2022-11-23T06:54:53;99196.81;;;2.67;100.00
71299;BME280;59083;47.974;21.722;2022-11-23T06:57:56;99190.22;;;2.71;100.00
71299;BME280;59083;47.974;21.722;2022-11-23T07:01:03;99173.28;;;2.82;100.00
71299;BME280;59083;47.974;21.722;2022-11-23T07:04:06;99182.66;;;2.76;100.00
71299;BME280;59083;47.974;21.722;2022-11-23T07:07:08;99197.47;;;2.69;100.00
71299;BME280;59083;47.974;21.722;2022-11-23T07:10:11;99191.53;;;2.75;100.00
71299;BME280;59083;47.974;21.722;2022-11-23T07:13:13;99186.59;;;2.88;100.00
71299;BME280;59083;47.974;21.722;2022-11-23T07:16:15;99193.13;;;2.92;100.00
71299;BME280;59083;47.974;21.722;2022-11-23T07:19:16;99193.75;;;3.03;100.00
71299;BME280;59083;47.974;21.722;2022-11-23T07:22:18;99206.59;;;3.06;100.00
71299;BME280;59083;47.974;21.722;2022-11-23T07:25:19;99193.97;;;3.01;100.00
71299;BME280;59083;47.974;21.722;2022-11-23T07:28:21;99189.16;;;3.05;100.00
71299;BME280;59083;47.974;21.722;2022-11-23T07:31:23;99189.16;;;3.13;100.00
71299;BME280;59083;47.974;21.722;2022-11-23T07:34:24;99180.91;;;3.24;100.00
71299;BME280;59083;47.974;21.722;2022-11-23T07:37:25;99183.16;;;3.35;100.00
71299;BME280;59083;47.974;21.722;2022-11-23T07:40:28;99171.94;;;3.41;100.00
71299;BME280;59083;47.974;21.722;2022-11-23T07:43:29;99174.88;;;3.46;100.00
71299;BME280;59083;47.974;21.722;2022-11-23T07:46:30;99180.44;;;3.51;100.00
71299;BME280;59083;47.974;21.722;2022-11-23T07:49:31;99183.38;;;3.56;100.00
71299;BME280;59083;47.974;21.722;2022-11-23T07:52:34;99178.41;;;3.61;99.77
71299;BME280;59083;47.974;21.722;2022-11-23T07:55:35;99185.31;;;3.62;99.30
71299;BME280;59083;47.974;21.722;2022-11-23T07:58:37;99194.59;;;3.50;99.40
71299;BME280;59083;47.974;21.722;2022-11-23T08:01:38;99172.38;;;3.53;99.38
71299;BME280;59083;47.974;21.722;2022-11-23T08:04:39;99196.16;;;3.67;99.13
71299;BME280;59083;47.974;21.722;2022-11-23T08:07:41;99202.56;;;3.65;98.94
71299;BME280;59083;47.974;21.722;2022-11-23T08:10:42;99205.34;;;3.71;98.97
71299;BME280;59083;47.974;21.722;2022-11-23T08:13:44;99209.25;;;3.84;98.73
71299;BME280;59083;47.974;21.722;2022-11-23T08:16:49;99200.34;;;3.85;98.11
71299;BME280;59083;47.974;21.722;2022-11-23T08:19:51;99205.63;;;3.85;97.29
71299;BME280;59083;47.974;21.722;2022-11-23T08:22:52;99202.00;;;3.86;97.30
71299;BME280;59083;47.974;21.722;2022-11-23T08:25:55;99202.69;;;3.80;97.82
71299;BME280;59083;47.974;21.722;2022-11-23T08:28:57;99198.84;;;3.90;97.71
71299;BME280;59083;47.974;21.722;2022-11-23T08:31:58;99198.66;;;3.92;97.50
71299;BME280;59083;47.974;21.722;2022-11-23T08:34:59;99198.25;;;4.03;97.78
71299;BME280;59083;47.974;21.722;2022-11-23T08:38:00;99209.13;;;4.00;97.30
71299;BME280;59083;47.974;21.722;2022-11-23T08:41:03;99208.09;;;4.09;97.40
71299;BME280;59083;47.974;21.722;2022-11-23T08:44:05;99199.53;;;4.07;97.87
71299;BME280;59083;47.974;21.722;2022-11-23T08:47:09;99198.84;;;4.13;97.84
71299;BME280;59083;47.974;21.722;2022-11-23T08:50:11;99196.50;;;4.18;97.24
71299;BME280;59083;47.974;21.722;2022-11-23T08:53:12;99200.94;;;4.40;96.60
71299;BME280;59083;47.974;21.722;2022-11-23T08:56:13;99196.38;;;4.34;97.09
71299;BME280;59083;47.974;21.722;2022-11-23T08:59:15;99195.66;;;4.40;96.96
71299;BME280;59083;47.974;21.722;2022-11-23T09:02:17;99186.13;;;4.39;96.86
71299;BME280;59083;47.974;21.722;2022-11-23T09:05:18;99179.84;;;4.40;97.41
71299;BME280;59083;47.974;21.722;2022-11-23T09:08:19;99176.03;;;4.43;97.12
71299;BME280;59083;47.974;21.722;2022-11-23T09:11:21;99166.72;;;4.55;97.20
71299;BME280;59083;47.974;21.722;2022-11-23T09:14:22;99178.72;;;4.57;97.23
71299;BME280;59083;47.974;21.722;2022-11-23T09:17:23;99172.44;;;4.58;96.92
71299;BME280;59083;47.974;21.722;2022-11-23T09:20:24;99175.72;;;4.61;97.02
71299;BME280;59083;47.974;21.722;2022-11-23T09:23:26;99177.28;;;4.70;95.56
71299;BME280;59083;47.974;21.722;2022-11-23T09:26:27;99178.75;;;4.72;95.84
71299;BME280;59083;47.974;21.722;2022-11-23T09:29:28;99174.28;;;4.73;95.48
71299;BME280;59083;47.974;21.722;2022-11-23T09:32:31;99176.75;;;4.74;95.69
71299;BME280;59083;47.974;21.722;2022-11-23T09:35:33;99176.84;;;4.81;95.27
71299;BME280;59083;47.974;21.722;2022-11-23T09:38:34;99174.19;;;4.81;95.14
71299;BME280;59083;47.974;21.722;2022-11-23T09:51:18;99163.66;;;4.81;94.82
71299;BME280;59083;47.974;21.722;2022-11-23T09:54:27;99160.34;;;4.79;94.67
71299;BME280;59083;47.974;21.722;2022-11-23T09:57:31;99157.56;;;4.95;95.05
71299;BME280;59083;47.974;21.722;2022-11-23T10:00:37;99158.84;;;4.99;94.23
71299;BME280;59083;47.974;21.722;2022-11-23T10:03:42;99153.09;;;5.25;93.84
71299;BME280;59083;47.974;21.722;2022-11-23T10:06:44;99152.72;;;5.28;93.60
71299;BME280;59083;47.974;21.722;2022-11-23T10:16:36;99138.75;;;5.49;91.52
71299;BME280;59083;47.974;21.722;2022-11-23T10:23:02;99129.63;;;5.87;90.83
71299;BME280;59083;47.974;21.722;2022-11-23T10:26:16;99125.34;;;5.86;90.58
71299;BME280;59083;47.974;21.722;2022-11-23T10:29:30;99141.56;;;5.83;90.39
71299;BME280;59083;47.974;21.722;2022-11-23T10:32:46;99133.09;;;5.88;89.92
71299;BME280;59083;47.974;21.722;2022-11-23T10:35:50;99130.63;;;5.86;90.79
71299;BME280;59083;47.974;21.722;2022-11-23T10:38:56;99131.94;;;5.90;90.28
71299;BME280;59083;47.974;21.722;2022-11-23T10:42:03;99136.22;;;5.91;90.15
71299;BME280;59083;47.974;21.722;2022-11-23T10:45:26;99139.22;;;5.88;89.21
71299;BME280;59083;47.974;21.722;2022-11-23T10:48:33;99131.16;;;5.96;89.38
71299;BME280;59083;47.974;21.722;2022-11-23T10:51:36;99138.84;;;5.91;87.54
71299;BME280;59083;47.974;21.722;2022-11-23T10:57:42;99141.06;;;6.09;88.03
71299;BME280;59083;47.974;21.722;2022-11-23T11:00:44;99144.53;;;6.09;87.06
71299;BME280;59083;47.974;21.722;2022-11-23T11:03:45;99141.75;;;6.17;87.28
71299;BME280;59083;47.974;21.722;2022-11-23T11:06:46;99144.97;;;6.13;86.31
71299;BME280;59083;47.974;21.722;2022-11-23T11:10:30;99150.44;;;6.11;85.53
71299;BME280;59083;47.974;21.722;2022-11-23T11:13:43;99155.22;;;6.22;84.24
71299;BME280;59083;47.974;21.722;2022-11-23T11:16:49;99141.50;;;6.12;84.94
71299;BME280;59083;47.974;21.722;2022-11-23T11:19:51;99131.31;;;6.09;84.81
71299;BME280;59083;47.974;21.722;2022-11-23T11:23:19;99134.69;;;6.25;85.07
71299;BME280;59083;47.974;21.722;2022-11-23T11:26:24;99132.81;;;6.18;83.80
71299;BME280;59083;47.974;21.722;2022-11-23T11:29:39;99148.91;;;6.23;83.13
71299;BME280;59083;47.974;21.722;2022-11-23T11:36:03;99127.88;;;6.37;82.49
71299;BME280;59083;47.974;21.722;2022-11-23T11:39:14;99135.56;;;6.32;83.13
71299;BME280;59083;47.974;21.722;2022-11-23T11:42:37;99125.34;;;6.29;82.45
71299;BME280;59083;47.974;21.722;2022-11-23T11:45:47;99131.63;;;6.49;82.15
71299;BME280;59083;47.974;21.722;2022-11-23T11:48:53;99123.16;;;6.60;81.05
71299;BME280;59083;47.974;21.722;2022-11-23T11:52:08;99128.47;;;6.67;79.55
71299;BME280;59083;47.974;21.722;2022-11-23T11:55:17;99134.13;;;6.57;79.91
71299;BME280;59083;47.974;21.722;2022-11-23T11:58:23;99122.81;;;6.70;80.45
71299;BME280;59083;47.974;21.722;2022-11-23T12:01:33;99125.66;;;6.68;80.12
71299;BME280;59083;47.974;21.722;2022-11-23T12:04:43;99130.56;;;6.71;80.89
71299;BME280;59083;47.974;21.722;2022-11-23T12:11:23;99130.19;;;6.74;81.80
71299;BME280;59083;47.974;21.722;2022-11-23T12:14:24;99134.69;;;6.80;82.44
71299;BME280;59083;47.974;21.722;2022-11-23T12:24:53;99131.91;;;6.95;82.10
71299;BME280;59083;47.974;21.722;2022-11-23T12:38:33;99137.56;;;6.85;81.26
71299;BME280;59083;47.974;21.722;2022-11-23T12:42:00;99140.09;;;6.93;81.09
71299;BME280;59083;47.974;21.722;2022-11-23T12:58:52;99130.09;;;6.95;81.00
71299;BME280;59083;47.974;21.722;2022-11-23T13:02:00;99120.44;;;6.81;80.92
71299;BME280;59083;47.974;21.722;2022-11-23T13:05:40;99121.38;;;6.67;81.21
71299;BME280;59083;47.974;21.722;2022-11-23T13:09:02;99122.78;;;6.63;81.95
71299;BME280;59083;47.974;21.722;2022-11-23T13:21:55;99119.06;;;6.30;83.04
71299;BME280;59083;47.974;21.722;2022-11-23T13:25:22;99122.53;;;6.30;83.17
71299;BME280;59083;47.974;21.722;2022-11-23T13:28:30;99127.34;;;6.27;83.69
71299;BME280;59083;47.974;21.722;2022-11-23T13:31:32;99139.16;;;6.24;84.34
71299;BME280;59083;47.974;21.722;2022-11-23T13:34:44;99137.84;;;6.13;84.61
71299;BME280;59083;47.974;21.722;2022-11-23T13:40:55;99139.97;;;6.25;84.41
71299;BME280;59083;47.974;21.722;2022-11-23T13:43:57;99150.81;;;6.30;84.39
71299;BME280;59083;47.974;21.722;2022-11-23T13:50:16;99134.94;;;6.30;84.41
71299;BME280;59083;47.974;21.722;2022-11-23T14:03:55;99135.91;;;6.50;83.79
71299;BME280;59083;47.974;21.722;2022-11-23T14:07:25;99142.22;;;6.49;83.72
71299;BME280;59083;47.974;21.722;2022-11-23T14:21:32;99139.47;;;6.36;84.44
71299;BME280;59083;47.974;21.722;2022-11-23T14:32:14;99151.81;;;6.29;84.97
71299;BME280;59083;47.974;21.722;2022-11-23T14:35:25;99155.84;;;6.25;84.97
71299;BME280;59083;47.974;21.722;2022-11-23T14:41:34;99139.53;;;6.21;85.94
71299;BME280;59083;47.974;21.722;2022-11-23T14:44:39;99152.19;;;6.26;85.39
71299;BME280;59083;47.974;21.722;2022-11-23T14:47:42;99147.28;;;6.22;85.47
71299;BME280;59083;47.974;21.722;2022-11-23T14:50:53;99149.91;;;6.22;85.21
71299;BME280;59083;47.974;21.722;2022-11-23T14:53:59;99160.50;;;6.22;85.34
71299;BME280;59083;47.974;21.722;2022-11-23T14:57:02;99150.44;;;6.11;85.39
71299;BME280;59083;47.974;21.722;2022-11-23T15:00:04;99165.03;;;6.07;86.01
71299;BME280;59083;47.974;21.722;2022-11-23T15:03:14;99160.88;;;5.98;86.43
71299;BME280;59083;47.974;21.722;2022-11-23T15:06:17;99160.25;;;5.96;87.37
71299;BME280;59083;47.974;21.722;2022-11-23T15:12:44;99157.44;;;5.83;88.73
71299;BME280;59083;47.974;21.722;2022-11-23T15:15:49;99162.47;;;5.78;88.20
71299;BME280;59083;47.974;21.722;2022-11-23T15:18:52;99154.53;;;5.78;88.09
71299;BME280;59083;47.974;21.722;2022-11-23T15:21:54;99152.53;;;5.80;88.16
71299;BME280;59083;47.974;21.722;2022-11-23T15:25:05;99150.91;;;5.79;88.32
71299;BME280;59083;47.974;21.722;2022-11-23T15:28:15;99143.56;;;5.81;88.67
71299;BME280;59083;47.974;21.722;2022-11-23T15:34:24;99140.94;;;5.81;88.57
71299;BME280;59083;47.974;21.722;2022-11-23T15:37:25;99146.50;;;5.86;88.64
71299;BME280;59083;47.974;21.722;2022-11-23T15:40:31;99136.56;;;5.88;88.59
71299;BME280;59083;47.974;21.722;2022-11-23T15:43:33;99135.47;;;5.82;89.32
71299;BME280;59083;47.974;21.722;2022-11-23T15:46:36;99149.44;;;5.76;89.48
71299;BME280;59083;47.974;21.722;2022-11-23T15:49:38;99153.28;;;5.74;89.13
71299;BME280;59083;47.974;21.722;2022-11-23T15:52:41;99152.78;;;5.64;89.87
71299;BME280;59083;47.974;21.722;2022-11-23T15:55:42;99141.66;;;5.54;89.64
71299;BME280;59083;47.974;21.722;2022-11-23T15:58:47;99139.13;;;5.46;89.75
71299;BME280;59083;47.974;21.722;2022-11-23T16:01:49;99156.00;;;5.30;90.69
71299;BME280;59083;47.974;21.722;2022-11-23T16:08:23;99164.09;;;5.14;91.45
71299;BME280;59083;47.974;21.722;2022-11-23T16:11:33;99161.31;;;5.01;91.68
71299;BME280;59083;47.974;21.722;2022-11-23T16:14:35;99167.09;;;4.96;92.13
71299;BME280;59083;47.974;21.722;2022-11-23T16:17:36;99161.56;;;4.91;92.30
71299;BME280;59083;47.974;21.722;2022-11-23T16:20:42;99163.09;;;4.85;92.26
71299;BME280;59083;47.974;21.722;2022-11-23T16:23:50;99168.75;;;4.82;91.86
71299;BME280;59083;47.974;21.722;2022-11-23T16:26:54;99166.66;;;4.78;91.83
71299;BME280;59083;47.974;21.722;2022-11-23T16:29:55;99167.81;;;4.75;91.53
71299;BME280;59083;47.974;21.722;2022-11-23T16:32:57;99174.28;;;4.73;91.29
71299;BME280;59083;47.974;21.722;2022-11-23T16:35:58;99163.37;;;4.76;91.28
71299;BME280;59083;47.974;21.722;2022-11-23T16:38:59;99167.66;;;4.77;90.72
71299;BME280;59083;47.974;21.722;2022-11-23T16:42:00;99166.00;;;4.76;90.63
71299;BME280;59083;47.974;21.722;2022-11-23T16:45:02;99169.38;;;4.70;90.64
71299;BME280;59083;47.974;21.722;2022-11-23T16:48:34;99165.72;;;4.71;90.38
71299;BME280;59083;47.974;21.722;2022-11-23T16:51:35;99165.09;;;4.69;90.50
71299;BME280;59083;47.974;21.722;2022-11-23T16:54:37;99171.06;;;4.63;90.80
71299;BME280;59083;47.974;21.722;2022-11-23T16:57:38;99163.88;;;4.56;91.23
71299;BME280;59083;47.974;21.722;2022-11-23T17:00:40;99169.53;;;4.53;91.06
71299;BME280;59083;47.974;21.722;2022-11-23T17:03:41;99177.50;;;4.45;91.45
71299;BME280;59083;47.974;21.722;2022-11-23T17:06:44;99181.94;;;4.45;91.48
71299;BME280;59083;47.974;21.722;2022-11-23T17:09:45;99178.84;;;4.41;91.88
71299;BME280;59083;47.974;21.722;2022-11-23T17:12:51;99183.47;;;4.39;92.11
71299;BME280;59083;47.974;21.722;2022-11-23T17:15:54;99180.22;;;4.37;92.25
71299;BME280;59083;47.974;21.722;2022-11-23T17:18:55;99185.50;;;4.37;92.01
71299;BME280;59083;47.974;21.722;2022-11-23T17:21:56;99188.47;;;4.34;91.80
71299;BME280;59083;47.974;21.722;2022-11-23T17:24:58;99189.94;;;4.37;91.97
71299;BME280;59083;47.974;21.722;2022-11-23T17:27:59;99185.37;;;4.31;92.16
71299;BME280;59083;47.974;21.722;2022-11-23T17:31:01;99178.00;;;4.26;92.03
71299;BME280;59083;47.974;21.722;2022-11-23T17:34:02;99182.62;;;4.24;92.16
71299;BME280;59083;47.974;21.722;2022-11-23T17:37:49;99188.31;;;4.88;89.69
71299;BME280;59083;47.974;21.722;2022-11-23T17:40:51;99188.31;;;4.88;89.69
71299;BME280;59083;47.974;21.722;2022-11-23T17:43:52;99180.97;;;4.23;92.24
71299;BME280;59083;47.974;21.722;2022-11-23T17:46:57;99188.06;;;4.23;92.07
71299;BME280;59083;47.974;21.722;2022-11-23T17:49:59;99188.19;;;4.29;91.94
71299;BME280;59083;47.974;21.722;2022-11-23T17:53:00;99177.34;;;4.24;91.99
71299;BME280;59083;47.974;21.722;2022-11-23T17:56:02;99173.59;;;4.19;91.95
71299;BME280;59083;47.974;21.722;2022-11-23T17:59:04;99183.03;;;4.13;92.41
71299;BME280;59083;47.974;21.722;2022-11-23T18:02:07;99177.75;;;4.13;92.10
71299;BME280;59083;47.974;21.722;2022-11-23T18:05:09;99182.38;;;4.11;91.99
71299;BME280;59083;47.974;21.722;2022-11-23T18:08:10;99189.00;;;4.07;92.34
71299;BME280;59083;47.974;21.722;2022-11-23T18:11:12;99190.97;;;4.05;92.36
71299;BME280;59083;47.974;21.722;2022-11-23T18:14:13;99188.53;;;4.03;92.44